Time;durP1;ratioP1;P1;durP2;ratioP2;P2;SDS_P1;SDS_P2;PMS_P1;PMS_P2;Temp;Humidity;BMP_temperature;BMP_pressure;BME280_temperature;BME280_humidity;BME280_pressure;Samples;Min_cycle;Max_cycle;Signal;HPM_P1;HPM_P2
2022/08/18 00:00:14;;;;;;;8.55;5.80;;;24.50;97.70;;;;;;5095856;28;20024;-73
2022/08/18 00:02:42;;;;;;;9.15;4.93;;;24.40;97.70;;;;;;5095871;28;20032;-73
2022/08/18 00:05:09;;;;;;;8.57;5.97;;;24.30;97.80;;;;;;5095562;28;20438;-73
2022/08/18 00:07:35;;;;;;;10.30;5.88;;;24.30;97.90;;;;;;5094553;28;20560;-73
2022/08/18 00:10:02;;;;;;;7.45;5.38;;;24.30;98.00;;;;;;5095756;28;20016;-72
2022/08/18 00:12:32;;;;;;;12.20;5.70;;;24.30;98.10;;;;;;5095562;28;20080;-73
2022/08/18 00:15:02;;;;;;;7.70;5.97;;;24.30;98.20;;;;;;5095379;28;20017;-73
2022/08/18 00:17:29;;;;;;;7.97;5.32;;;24.30;98.30;;;;;;5095664;28;20016;-73
2022/08/18 00:19:55;;;;;;;7.03;5.80;;;;;;;;;;5095557;28;20031;-72
2022/08/18 00:22:22;;;;;;;8.77;6.03;;;;;;;;;;5095455;28;20024;-73
2022/08/18 00:24:50;;;;;;;7.55;6.30;;;24.30;98.50;;;;;;5095961;28;20109;-73
2022/08/18 00:27:22;;;;;;;6.65;5.97;;;24.20;98.80;;;;;;5094098;28;20030;-72
2022/08/18 00:29:49;;;;;;;7.43;5.80;;;24.10;99.40;;;;;;5095414;28;20035;-72
2022/08/18 00:32:18;;;;;;;6.85;5.40;;;24.10;99.00;;;;;;5095369;28;20066;-72
2022/08/18 00:34:44;;;;;;;8.18;5.65;;;24.00;99.10;;;;;;5095316;28;20066;-72
2022/08/18 00:37:10;;;;;;;7.80;5.47;;;24.10;99.10;;;;;;5093908;28;20024;-72
2022/08/18 00:39:36;;;;;;;8.63;6.00;;;24.00;99.30;;;;;;5095228;28;20028;-74
2022/08/18 00:42:17;;;;;;;9.07;5.72;;;24.10;99.50;;;;;;5095277;28;20032;-72
2022/08/18 00:44:43;;;;;;;9.05;5.22;;;24.10;99.50;;;;;;5094019;28;20056;-72
2022/08/18 00:47:09;;;;;;;10.25;5.93;;;24.20;99.50;;;;;;5095015;28;20106;-73
2022/08/18 00:49:38;;;;;;;7.90;6.50;;;24.20;99.70;;;;;;5093734;28;20115;-72
2022/08/18 00:52:05;;;;;;;9.30;6.20;;;24.10;99.90;;;;;;5094881;28;20028;-73
2022/08/18 00:54:34;;;;;;;12.80;6.75;;;24.10;99.90;;;;;;5093687;28;20019;-72
2022/08/18 00:57:05;;;;;;;14.68;6.85;;;24.30;99.90;;;;;;5095090;28;20021;-72
2022/08/18 00:59:31;;;;;;;10.90;6.32;;;24.10;99.90;;;;;;5093543;28;20052;-73
2022/08/18 01:02:01;;;;;;;10.23;6.20;;;24.20;99.90;;;;;;5094879;28;20078;-73
2022/08/18 01:04:55;;;;;;;10.77;6.97;;;24.20;99.90;;;;;;5093463;28;20094;-73
2022/08/18 01:07:32;;;;;;;14.15;7.68;;;24.10;99.90;;;;;;5093947;28;20372;-73
2022/08/18 01:09:58;;;;;;;11.70;6.90;;;23.90;99.90;;;;;;5093110;28;20054;-72
2022/08/18 01:12:26;;;;;;;11.10;6.63;;;24.00;99.90;;;;;;5092469;28;20484;-74
2022/08/18 01:14:53;;;;;;;13.88;7.18;;;23.90;99.90;;;;;;5094819;28;20024;-73
2022/08/18 01:23:23;;;;;;;10.52;6.85;;;23.90;99.90;;;;;;5094226;28;20066;-73
2022/08/18 01:26:00;;;;;;;10.90;7.55;;;;;;;;;;5012162;28;20089;-72
2022/08/18 01:28:42;;;;;;;8.38;6.97;;;;;;;;;;4995644;28;20061;-75
2022/08/18 01:31:09;;;;;;;10.05;6.97;;;23.80;99.90;;;;;;5012181;28;20049;-72
2022/08/18 01:33:38;;;;;;;8.95;7.43;;;23.80;99.90;;;;;;5011996;28;20466;-72
2022/08/18 01:36:20;;;;;;;12.98;6.85;;;23.80;99.90;;;;;;4995667;28;20034;-73
2022/08/18 01:38:49;;;;;;;8.43;6.55;;;23.80;99.90;;;;;;5012009;28;20030;-72
2022/08/18 01:41:16;;;;;;;10.32;6.13;;;23.80;99.90;;;;;;5011837;28;20038;-73
2022/08/18 01:43:42;;;;;;;19.33;7.38;;;23.70;99.90;;;;;;5011953;28;20030;-72
2022/08/18 01:46:08;;;;;;;12.27;7.38;;;23.60;99.90;;;;;;5012275;28;20157;-73
2022/08/18 01:48:36;;;;;;;11.23;6.63;;;23.60;99.90;;;;;;5011832;28;20045;-75
2022/08/18 01:51:06;;;;;;;12.02;6.50;;;23.60;99.90;;;;;;4995277;28;20029;-72
2022/08/18 01:53:32;;;;;;;11.70;6.80;;;23.70;99.90;;;;;;4995285;28;20030;-72
2022/08/18 01:55:58;;;;;;;13.13;7.35;;;23.80;99.90;;;;;;5012176;28;20073;-74
2022/08/18 01:58:26;;;;;;;15.82;7.40;;;23.60;99.90;;;;;;5011748;28;20600;-73
2022/08/18 02:00:58;;;;;;;12.20;7.35;;;23.50;99.90;;;;;;5021778;28;20032;-73
2022/08/18 02:03:33;;;;;;;11.27;6.65;;;23.50;99.90;;;;;;5092522;28;20036;-73
2022/08/18 02:06:02;;;;;;;8.40;7.00;;;23.40;99.90;;;;;;5093959;28;20030;-74
2022/08/18 02:08:28;;;;;;;15.40;6.95;;;23.50;99.90;;;;;;5093896;28;20032;-73
2022/08/18 02:10:57;;;;;;;13.52;6.78;;;;;;;;;;5094086;28;20535;-73
2022/08/18 02:13:24;;;;;;;10.98;7.15;;;;;;;;;;5093391;28;20495;-73
2022/08/18 02:15:50;;;;;;;14.32;6.97;;;;;;;;;;5093741;28;20373;-73
2022/08/18 02:18:22;;;;;;;7.95;6.80;;;;;;;;;;5094196;28;20031;-75
2022/08/18 02:20:48;;;;;;;9.23;6.85;;;;;;;;;;5092596;28;20401;-73
2022/08/18 02:23:16;;;;;;;8.48;6.78;;;;;;;;;;5094540;28;20028;-74
2022/08/18 02:25:43;;;;;;;9.30;6.78;;;;;;;;;;5097866;28;20016;-74
2022/08/18 02:28:09;;;;;;;9.52;6.13;;;;;;;;;;5096439;28;20383;-72
2022/08/18 02:30:36;;;;;;;9.30;7.00;;;;;;;;;;5096507;28;20021;-72
2022/08/18 02:33:04;;;;;;;11.13;6.63;;;;;;;;;;5097478;28;20358;-72
2022/08/18 02:35:30;;;;;;;9.88;6.15;;;;;;;;;;5096447;28;20473;-73
2022/08/18 02:37:59;;;;;;;11.77;7.10;;;;;;;;;;5097676;28;20455;-74
2022/08/18 02:40:27;;;;;;;9.57;6.43;;;;;;;;;;5096516;28;20358;-72
2022/08/18 02:42:53;;;;;;;12.07;6.70;;;;;;;;;;5097714;28;20461;-73
2022/08/18 02:45:20;;;;;;;9.55;7.22;;;;;;;;;;5096542;28;20487;-73
2022/08/18 02:47:51;;;;;;;13.95;7.43;;;;;;;;;;5097346;28;20024;-72
2022/08/18 02:50:17;;;;;;;12.77;6.68;;;;;;;;;;5097495;28;20032;-74
2022/08/18 02:52:43;;;;;;;7.78;6.22;;;;;;;;;;5095919;28;20036;-76
2022/08/18 02:55:10;;;;;;;12.93;6.55;;;;;;;;;;5097321;28;20468;-75
2022/08/18 02:57:41;;;;;;;10.80;6.40;;;;;;;;;;5095928;28;20044;-74
2022/08/18 03:00:10;;;;;;;11.57;7.27;;;;;;;;;;5097248;28;20025;-75
2022/08/18 03:02:37;;;;;;;9.63;7.18;;;;;;;;;;5097051;28;20028;-74
2022/08/18 03:05:03;;;;;;;16.23;8.43;;;;;;;;;;5097336;28;20027;-74
2022/08/18 03:07:30;;;;;;;17.02;6.85;;;;;;;;;;5095887;28;20027;-74
2022/08/18 03:09:56;;;;;;;9.43;6.60;;;;;;;;;;5095671;28;20478;-75
2022/08/18 03:12:23;;;;;;;21.48;7.25;;;;;;;;;;5096809;28;20048;-74
2022/08/18 03:14:50;;;;;;;13.02;6.97;;;;;;;;;;5096899;28;20023;-74
2022/08/18 03:17:16;;;;;;;14.77;8.50;;;;;;;;;;5096870;28;20031;-75
2022/08/18 03:19:45;;;;;;;14.68;7.97;;;;;;;;;;5096709;28;20020;-75
2022/08/18 03:22:13;;;;;;;9.27;7.22;;;;;;;;;;5095885;28;20384;-74
2022/08/18 03:24:39;;;;;;;11.18;7.05;;;;;;;;;;5096818;28;20016;-74
2022/08/18 03:27:06;;;;;;;10.20;7.50;;;;;;;;;;5095336;28;20024;-73
2022/08/18 03:29:33;;;;;;;12.55;7.80;;;;;;;;;;5096625;28;20024;-73
2022/08/18 03:32:03;;;;;;;12.40;7.13;;;;;;;;;;5096558;28;20028;-74
2022/08/18 03:34:31;;;;;;;13.05;6.80;;;;;;;;;;5094690;28;20031;-75
2022/08/18 03:36:57;;;;;;;11.90;7.72;;;;;;;;;;5096435;28;20023;-73
2022/08/18 03:39:23;;;;;;;12.32;7.72;;;;;;;;;;5096353;28;20032;-73
2022/08/18 03:41:54;;;;;;;13.20;8.73;;;;;;;;;;5094998;28;20035;-74
2022/08/18 03:44:21;;;;;;;17.35;9.65;;;;;;;;;;5095090;28;20072;-72
2022/08/18 03:46:47;;;;;;;13.23;8.70;;;23.50;99.90;;;;;;5096275;28;20376;-73
2022/08/18 03:49:13;;;;;;;10.38;8.52;;;22.70;99.90;;;;;;5096342;28;20028;-74
2022/08/18 03:51:45;;;;;;;10.95;8.38;;;22.60;99.90;;;;;;5094853;28;20028;-73
2022/08/18 03:54:12;;;;;;;17.83;9.00;;;22.90;99.90;;;;;;5094863;28;20460;-73
2022/08/18 03:56:40;;;;;;;11.32;9.35;;;22.70;99.90;;;;;;5094812;28;20020;-73
2022/08/18 03:59:22;;;;;;;14.07;8.70;;;22.70;99.90;;;;;;5096389;28;20028;-74
2022/08/18 04:01:51;;;;;;;11.98;8.07;;;22.60;99.90;;;;;;5096065;28;20032;-73
2022/08/18 04:04:20;;;;;;;15.75;9.77;;;22.80;99.90;;;;;;5094698;28;20379;-73
2022/08/18 04:06:57;;;;;;;14.10;9.43;;;22.70;99.90;;;;;;5095648;28;20387;-75
2022/08/18 04:09:26;;;;;;;14.82;8.73;;;22.80;99.90;;;;;;5094541;28;20077;-73
2022/08/18 04:11:52;;;;;;;21.45;9.65;;;22.80;99.90;;;;;;5095382;28;20101;-73
2022/08/18 04:14:27;;;;;;;17.10;8.40;;;22.70;99.90;;;;;;5095764;28;20027;-73
2022/08/18 04:16:53;;;;;;;25.23;11.07;;;22.70;99.90;;;;;;5094403;28;20028;-73
2022/08/18 04:19:19;;;;;;;14.43;8.30;;;22.60;99.90;;;;;;5095877;28;20028;-74
2022/08/18 04:21:45;;;;;;;15.68;9.85;;;22.80;99.90;;;;;;5095514;28;20032;-74
2022/08/18 04:24:12;;;;;;;18.42;10.05;;;22.70;99.90;;;;;;5094613;28;20024;-73
2022/08/18 04:26:44;;;;;;;18.92;9.13;;;22.70;99.90;;;;;;5095909;28;20411;-73
2022/08/18 04:29:12;;;;;;;16.48;9.48;;;22.80;99.90;;;;;;5094185;28;20048;-73
2022/08/18 04:31:38;;;;;;;18.55;9.27;;;22.60;99.90;;;;;;5094078;28;20437;-73
2022/08/18 04:34:05;;;;;;;20.70;8.75;;;22.60;99.90;;;;;;5093998;28;20080;-74
2022/08/18 04:36:33;;;;;;;21.48;8.90;;;22.50;99.90;;;;;;5094037;28;20035;-74
2022/08/18 04:39:00;;;;;;;22.75;9.48;;;22.80;99.90;;;;;;5095267;28;20023;-74
2022/08/18 04:41:27;;;;;;;29.25;10.52;;;22.70;99.90;;;;;;5094969;28;20353;-74
2022/08/18 04:44:04;;;;;;;21.38;8.98;;;22.90;99.90;;;;;;5093821;28;20491;-74
2022/08/18 04:46:35;;;;;;;18.60;9.07;;;22.90;99.90;;;;;;5094417;28;20024;-73
2022/08/18 04:49:02;;;;;;;17.42;9.43;;;;;;;;;;5094977;28;20380;-74
2022/08/18 04:51:29;;;;;;;23.88;9.20;;;;;;;;;;5094977;28;20039;-72
2022/08/18 04:53:56;;;;;;;23.90;9.85;;;;;;;;;;5094929;28;20028;-72
2022/08/18 04:56:26;;;;;;;22.80;10.05;;;;;;;;;;5093978;28;20407;-71
2022/08/18 04:58:53;;;;;;;20.65;9.50;;;;;;;;;;5094963;28;20012;-71
2022/08/18 05:01:20;;;;;;;21.85;10.98;;;;;;;;;;5093437;28;20090;-70
2022/08/18 05:03:48;;;;;;;20.33;9.93;;;;;;;;;;5094797;28;20042;-72
2022/08/18 05:06:14;;;;;;;17.52;10.02;;;;;;;;;;5094772;28;20028;-72
2022/08/18 05:08:40;;;;;;;18.38;10.02;;;23.00;99.90;;;;;;5093641;28;20395;-71
2022/08/18 05:11:06;;;;;;;27.25;10.45;;;22.60;99.90;;;;;;5093340;28;20081;-70
2022/08/18 05:13:32;;;;;;;29.05;12.85;;;;;;;;;;5094080;28;20048;-72
2022/08/18 05:16:02;;;;;;;20.42;11.43;;;;;;;;;;5093360;28;20415;-70
2022/08/18 05:18:32;;;;;;;13.82;10.05;;;;;;;;;;5093676;28;20361;-72
2022/08/18 05:20:59;;;;;;;15.35;10.43;;;;;;;;;;5094232;28;20074;-70
2022/08/18 05:23:26;;;;;;;20.15;10.90;;;;;;;;;;5094409;28;20052;-71
2022/08/18 05:26:01;;;;;;;14.73;9.50;;;;;;;;;;5093356;28;20429;-71
2022/08/18 05:28:27;;;;;;;18.92;8.98;;;;;;;;;;5093590;28;20435;-72
2022/08/18 05:30:53;;;;;;;20.63;10.27;;;22.50;99.90;;;;;;5094314;28;20046;-73
2022/08/18 05:33:19;;;;;;;14.88;9.95;;;;;;;;;;5094260;28;20385;-73
2022/08/18 05:35:47;;;;;;;22.65;11.02;;;;;;;;;;5094373;28;20020;-72
2022/08/18 05:38:32;;;;;;;16.42;11.13;;;;;;;;;;5094114;28;20020;-71
2022/08/18 05:41:09;;;;;;;21.27;10.60;;;;;;;;;;5094125;28;20028;-72
2022/08/18 05:43:37;;;;;;;12.77;9.80;;;;;;;;;;5093926;28;20482;-71
2022/08/18 05:46:04;;;;;;;12.10;8.73;;;;;;;;;;5094207;28;20043;-73
2022/08/18 05:48:31;;;;;;;19.05;11.38;;;;;;;;;;5094047;28;20107;-72
2022/08/18 05:51:01;;;;;;;18.52;10.55;;;;;;;;;;5094061;28;20032;-72
2022/08/18 05:59:05;;;;;;;20.25;10.82;;;;;;;;;;5093536;28;20110;-72
2022/08/18 06:01:35;;;;;;;14.75;8.73;;;;;;;;;;5092539;28;20459;-72
2022/08/18 06:04:04;;;;;;;15.25;10.55;;;;;;;;;;5093874;28;20016;-72
2022/08/18 06:06:32;;;;;;;16.98;9.80;;;;;;;;;;5093798;28;20488;-70
2022/08/18 06:09:11;;;;;;;12.73;8.27;;;;;;;;;;5093986;28;20032;-75
2022/08/18 06:11:37;;;;;;;12.88;8.45;;;;;;;;;;5090393;28;20052;-73
2022/08/18 06:14:03;;;;;;;15.68;8.95;;;;;;;;;;5093775;28;20086;-70
2022/08/18 06:16:44;;;;;;;13.02;8.93;;;;;;;;;;5093865;28;20020;-73
2022/08/18 06:19:29;;;;;;;14.95;9.23;;;;;;;;;;5093574;28;20035;-71
2022/08/18 06:22:51;;;;;;;12.30;8.52;;;23.00;99.90;;;;;;5093605;28;20035;-70
2022/08/18 06:25:24;;;;;;;12.82;7.53;;;24.60;99.90;;;;;;5031031;28;20036;-73
2022/08/18 06:28:06;;;;;;;14.10;7.93;;;24.60;99.90;;;;;;5084283;28;20040;-75
2022/08/18 06:30:41;;;;;;;9.70;7.40;;;24.60;99.90;;;;;;5094023;28;20032;-73
2022/08/18 06:33:31;;;;;;;12.38;8.68;;;24.70;99.90;;;;;;5093556;28;20047;-72
2022/08/18 06:36:32;;;;;;;12.75;8.52;;;24.80;99.90;;;;;;5092210;28;20085;-75
2022/08/18 06:39:16;;;;;;;14.13;8.23;;;24.90;99.90;;;;;;5093794;28;20425;-74
2022/08/18 06:41:50;;;;;;;14.77;8.13;;;24.90;99.90;;;;;;5093247;28;20032;-73
2022/08/18 06:44:23;;;;;;;18.50;8.68;;;25.00;99.90;;;;;;5092011;28;20114;-73
2022/08/18 06:47:18;;;;;;;15.70;7.93;;;25.00;99.90;;;;;;5093436;28;20034;-71
2022/08/18 06:50:01;;;;;;;10.73;7.65;;;25.10;99.90;;;;;;5082296;28;20040;-74
2022/08/18 06:52:37;;;;;;;10.52;6.57;;;25.20;99.90;;;;;;5087739;28;20024;-74
2022/08/18 06:55:15;;;;;;;13.50;7.07;;;25.30;99.90;;;;;;5073041;28;20025;-73
2022/08/18 06:57:56;;;;;;;17.13;8.02;;;25.40;99.90;;;;;;5073222;28;20475;-72
2022/08/18 07:00:27;;;;;;;;;;;25.40;99.90;;;;;;5073100;28;20036;-72
2022/08/18 07:03:16;;;;;;;11.15;8.23;;;25.50;99.90;;;;;;5072509;28;19912;-73
2022/08/18 07:06:03;;;;;;;11.55;8.27;;;25.50;99.90;;;;;;5072544;28;20354;-73
2022/08/18 07:08:32;;;;;;;16.55;7.78;;;25.60;99.90;;;;;;5073042;28;20034;-73
2022/08/18 07:11:16;;;;;;;15.88;7.90;;;25.80;99.90;;;;;;5075722;28;20416;-75
2022/08/18 07:13:45;;;;;;;10.90;7.20;;;25.90;99.90;;;;;;5076626;28;20486;-75
2022/08/18 07:16:27;;;;;;;15.95;8.18;;;26.00;99.90;;;;;;5076672;28;20032;-74
2022/08/18 07:19:05;;;;;;;11.95;7.90;;;26.10;99.90;;;;;;5076741;28;20039;-76
2022/08/18 07:21:33;;;;;;;20.85;7.13;;;26.20;99.90;;;;;;5076364;28;20029;-75
2022/08/18 07:24:31;;;;;;;11.38;7.20;;;26.40;99.90;;;;;;5076362;28;20094;-74
2022/08/18 07:26:59;;;;;;;9.77;6.90;;;26.40;99.90;;;;;;5075523;28;20040;-74
2022/08/18 07:29:26;;;;;;;15.57;7.45;;;26.70;99.90;;;;;;5075187;28;20031;-73
2022/08/18 07:31:54;;;;;;;17.25;6.90;;;26.80;99.90;;;;;;5075129;28;20025;-74
2022/08/18 07:34:27;;;;;;;17.13;9.02;;;26.90;99.90;;;;;;5072190;28;20047;-72
2022/08/18 07:37:04;;;;;;;21.08;7.93;;;27.00;99.90;;;;;;5091804;28;20167;-75
2022/08/18 07:39:57;;;;;;;11.55;7.15;;;27.10;99.90;;;;;;5095782;28;20032;-76
2022/08/18 07:42:38;;;;;;;21.58;7.90;;;27.30;99.90;;;;;;5097227;28;20060;-76
2022/08/18 07:45:16;;;;;;;15.02;7.50;;;27.40;99.90;;;;;;5078204;28;20086;-73
2022/08/18 07:47:47;;;;;;;16.55;7.45;;;27.50;99.90;;;;;;5075015;28;20434;-75
2022/08/18 07:50:14;;;;;;;13.90;7.07;;;27.60;99.90;;;;;;5074287;28;20034;-73
2022/08/18 07:53:18;;;;;;;18.00;6.72;;;27.70;99.90;;;;;;5074866;28;20459;-74
2022/08/18 07:55:51;;;;;;;16.75;6.80;;;27.80;99.90;;;;;;5040941;28;20036;-75
2022/08/18 07:58:26;;;;;;;15.52;6.50;;;;;;;;;;5075337;28;20028;-74
2022/08/18 08:01:03;;;;;;;11.88;6.30;;;;;;;;;;5073862;28;20029;-74
2022/08/18 08:03:49;;;;;;;12.30;6.38;;;;;;;;;;5074715;28;20171;-73
2022/08/18 08:06:27;;;;;;;13.35;6.40;;;;;;;;;;5074820;28;20457;-73
2022/08/18 08:09:01;;;;;;;10.38;5.55;;;;;;;;;;5073843;28;20481;-72
2022/08/18 08:11:39;;;;;;;11.77;5.63;;;;;;;;;;5074577;28;20084;-71
2022/08/18 08:14:29;;;;;;;10.25;5.57;;;28.20;99.90;;;;;;5073857;28;20146;-73
2022/08/18 08:17:17;;;;;;;9.98;5.63;;;;;;;;;;5074770;28;20021;-72
2022/08/18 08:20:15;;;;;;;14.40;5.22;;;29.40;99.90;;;;;;5074998;28;20028;-71
2022/08/18 08:22:41;;;;;;;11.70;5.28;;;29.70;99.50;;;;;;5075216;28;20075;-72
2022/08/18 08:25:34;;;;;;;7.72;5.07;;;29.90;98.70;;;;;;5074989;28;20064;-71
2022/08/18 08:28:21;;;;;;;21.60;5.97;;;30.10;97.90;;;;;;5075052;28;20024;-70
2022/08/18 08:31:08;;;;;;;13.63;5.50;;;30.30;97.10;;;;;;5074897;28;20021;-72
2022/08/18 08:33:48;;;;;;;9.82;4.85;;;30.50;96.50;;;;;;5075050;28;20510;-71
2022/08/18 08:36:22;;;;;;;13.38;5.30;;;30.60;96.60;;;;;;5073693;28;20405;-72
2022/08/18 08:39:05;;;;;;;11.90;5.38;;;30.70;95.70;;;;;;5074806;28;20101;-71
2022/08/18 08:41:50;;;;;;;9.40;5.38;;;30.90;95.30;;;;;;5073566;28;20043;-70
2022/08/18 08:44:39;;;;;;;6.82;4.60;;;;;;;;;;5074639;28;20112;-73
2022/08/18 08:47:17;;;;;;;12.35;5.10;;;;;;;;;;5074629;28;20020;-72
2022/08/18 08:49:49;;;;;;;9.60;5.07;;;;;;;;;;5074620;28;20029;-71
2022/08/18 08:52:24;;;;;;;11.90;5.28;;;;;;;;;;5074622;28;20025;-71
2022/08/18 08:54:53;;;;;;;8.95;5.30;;;;;;;;;;5074932;28;20376;-65
2022/08/18 08:57:21;;;;;;;9.02;5.05;;;;;;;;;;5073261;28;20078;-68
2022/08/18 08:59:49;;;;;;;18.50;5.28;;;31.80;99.90;;;;;;5074466;28;20021;-66
2022/08/18 09:02:37;;;;;;;9.88;4.70;;;32.20;92.50;;;;;;5073188;28;20060;-70
2022/08/18 09:05:15;;;;;;;6.40;4.22;;;32.40;91.90;;;;;;5074289;28;20116;-72
2022/08/18 09:07:57;;;;;;;8.45;4.68;;;32.60;91.70;;;;;;5074167;28;20116;-73
2022/08/18 09:10:58;;;;;;;7.57;5.10;;;32.70;90.60;;;;;;5072851;28;20048;-73
2022/08/18 09:13:38;;;;;;;6.43;3.92;;;32.80;88.40;;;;;;5074177;28;20123;-73
2022/08/18 09:16:26;;;;;;;8.63;4.20;;;32.90;86.60;;;;;;5074088;28;20024;-73
2022/08/18 09:19:02;;;;;;;5.75;3.80;;;33.20;87.20;;;;;;5074621;28;20021;-72
2022/08/18 09:21:43;;;;;;;9.93;3.90;;;33.40;87.00;;;;;;5072976;28;20056;-72
2022/08/18 09:24:25;;;;;;;7.23;3.90;;;33.60;84.00;;;;;;5074159;28;20024;-72
2022/08/18 09:26:52;;;;;;;6.68;4.30;;;33.80;83.80;;;;;;5073937;28;20472;-71
2022/08/18 09:29:22;;;;;;;4.55;3.30;;;;;;;;;;5074095;28;20111;-71
2022/08/18 09:31:49;;;;;;;8.18;3.20;;;;;;;;;;5073616;28;20027;-72
2022/08/18 09:34:15;;;;;;;4.85;3.30;;;;;;;;;;5073975;28;20103;-70
2022/08/18 09:36:42;;;;;;;6.78;3.83;;;;;;;;;;5073999;28;20046;-72
2022/08/18 09:42:38;;;;;;;3.03;2.78;;;34.60;82.90;;;;;;5073790;28;20039;-72
2022/08/18 09:45:30;;;;;;;5.35;3.10;;;34.90;75.60;;;;;;5073944;28;20030;-72
2022/08/18 09:48:00;;;;;;;;;;;35.00;76.20;;;;;;5074102;28;20036;-71
2022/08/18 09:50:27;;;;;;;4.22;3.35;;;35.10;76.60;;;;;;5073720;28;19958;-71
2022/08/18 09:52:57;;;;;;;4.18;3.22;;;35.10;75.70;;;;;;5073621;28;20029;-72
2022/08/18 09:55:23;;;;;;;4.45;3.22;;;35.40;75.60;;;;;;5073696;28;20133;-71
2022/08/18 09:58:16;;;;;;;7.95;3.00;;;35.60;75.10;;;;;;5073667;28;20029;-70
2022/08/18 10:00:42;;;;;;;6.88;3.72;;;35.60;73.80;;;;;;5073769;28;20497;-72
2022/08/18 10:03:23;;;;;;;4.07;3.00;;;35.80;72.10;;;;;;5073495;28;20036;-71
2022/08/18 10:06:03;;;;;;;11.15;3.25;;;35.80;73.30;;;;;;5073806;28;20017;-75
2022/08/18 10:08:56;;;;;;;4.57;3.33;;;35.90;73.00;;;;;;5072277;28;20033;-75
2022/08/18 10:11:44;;;;;;;5.78;3.20;;;36.30;73.90;;;;;;5077910;28;20044;-71
2022/08/18 10:14:57;;;;;;;5.65;3.35;;;36.50;71.80;;;;;;5093897;28;20030;-72
2022/08/18 10:17:33;;;;;;;4.18;3.08;;;36.50;68.90;;;;;;5079820;28;20197;-71
2022/08/18 10:20:26;;;;;;;7.68;3.30;;;36.60;69.80;;;;;;5093520;28;20031;-70
2022/08/18 10:22:53;;;;;;;3.95;2.80;;;36.70;70.40;;;;;;5092414;28;20066;-72
2022/08/18 10:25:34;;;;;;;5.65;3.10;;;37.00;70.40;;;;;;5084858;28;20032;-68
2022/08/18 10:28:04;;;;;;;7.25;3.17;;;37.40;70.40;;;;;;5079145;28;20050;-70
2022/08/18 10:30:33;;;;;;;5.22;3.25;;;37.70;69.40;;;;;;5083141;28;20027;-68
2022/08/18 10:33:10;;;;;;;4.07;3.13;;;38.20;66.90;;;;;;5080498;28;20052;-69
2022/08/18 10:35:36;;;;;;;4.07;3.22;;;38.30;65.80;;;;;;5072842;28;20078;-72
2022/08/18 10:38:11;;;;;;;11.75;3.50;;;39.10;65.90;;;;;;5074476;28;20025;-72
2022/08/18 10:40:38;;;;;;;6.60;2.90;;;;;;;;;;5080939;28;20032;-71
2022/08/18 10:43:07;;;;;;;8.07;3.45;;;40.20;64.80;;;;;;5079523;28;20024;-74
2022/08/18 10:45:44;;;;;;;5.82;3.30;;;40.50;63.70;;;;;;5075666;28;20145;-74
2022/08/18 10:48:21;;;;;;;6.43;3.00;;;40.50;62.90;;;;;;5077080;28;20024;-71
2022/08/18 10:51:26;;;;;;;6.07;3.28;;;40.90;70.30;;;;;;5076592;28;20060;-73
2022/08/18 10:54:22;;;;;;;5.65;3.20;;;41.00;60.80;;;;;;5076678;28;20408;-73
2022/08/18 10:57:04;;;;;;;4.40;2.63;;;41.20;61.40;;;;;;5069042;28;20480;-74
2022/08/18 11:00:17;;;;;;;4.18;2.90;;;41.30;59.70;;;;;;5075493;28;20452;-75
2022/08/18 11:02:52;;;;;;;4.30;2.85;;;41.80;57.90;;;;;;5029025;28;20036;-73
2022/08/18 11:05:23;;;;;;;4.35;3.20;;;41.80;58.50;;;;;;5075830;28;20507;-72
2022/08/18 11:07:57;;;;;;;7.07;3.05;;;42.30;66.50;;;;;;5076900;28;20051;-71
2022/08/18 11:10:47;;;;;;;4.60;3.17;;;42.80;55.20;;;;;;5076322;28;20507;-71
2022/08/18 11:13:48;;;;;;;5.07;2.95;;;42.90;56.30;;;;;;5076486;28;20048;-72
2022/08/18 11:16:34;;;;;;;5.90;3.15;;;43.60;56.00;;;;;;5076569;28;20035;-70
2022/08/18 11:19:07;;;;;;;4.70;2.60;;;;;;;;;;5054831;28;20043;-73
2022/08/18 11:21:37;;;;;;;7.85;3.25;;;43.80;53.20;;;;;;5076688;28;20017;-73
2022/08/18 11:24:11;;;;;;;;;;;44.30;54.00;;;;;;5076971;28;20056;-68
2022/08/18 11:26:46;;;;;;;3.83;2.63;;;43.80;53.30;;;;;;5076168;28;19990;-70
2022/08/18 11:29:32;;;;;;;7.63;2.70;;;43.70;52.90;;;;;;5076345;28;20103;-73
2022/08/18 11:32:07;;;;;;;2.63;2.30;;;;;;;;;;5076113;28;20028;-74
2022/08/18 11:34:41;;;;;;;4.43;2.50;;;44.60;51.30;;;;;;5074716;28;20112;-73
2022/08/18 11:37:20;;;;;;;6.05;2.75;;;44.20;51.10;;;;;;5074754;28;20358;-74
2022/08/18 11:39:52;;;;;;;5.65;2.88;;;45.20;50.50;;;;;;5074764;28;20020;-75
2022/08/18 11:42:20;;;;;;;3.60;2.47;;;;;;;;;;5075972;28;20066;-72
2022/08/18 11:44:46;;;;;;;4.93;2.63;;;;;;;;;;5075888;28;20021;-71
2022/08/18 11:47:16;;;;;;;2.90;2.50;;;;;;;;;;5075942;28;20099;-74
2022/08/18 11:50:07;;;;;;;6.15;2.63;;;;;;;;;;5074691;28;20032;-75
2022/08/18 11:52:45;;;;;;;2.55;2.33;;;;;;;;;;5070826;28;20072;-77
2022/08/18 11:55:18;;;;;;;3.97;2.83;;;;;;;;;;5080824;28;20480;-74
2022/08/18 11:57:48;;;;;;;5.32;2.42;;;;;;;;;;5079545;28;20058;-73
2022/08/18 12:00:32;;;;;;;4.90;2.70;;;;;;;;;;5075586;28;20024;-71
2022/08/18 12:03:03;;;;;;;7.18;2.90;;;;;;;;;;5075212;28;20032;-73
2022/08/18 12:05:28;;;;;;;;;;;47.90;47.40;;;;;;5075840;28;20111;-69
2022/08/18 12:07:55;;;;;;;4.68;2.28;;;;;;;;;;5075755;28;19947;-69
2022/08/18 12:10:23;;;;;;;3.60;2.72;;;;;;;;;;5075342;28;20039;-68
2022/08/18 12:12:51;;;;;;;3.42;2.53;;;;;;;;;;5073571;28;20040;-70
2022/08/18 12:15:17;;;;;;;5.90;3.00;;;;;;;;;;5073803;28;20024;-70
2022/08/18 12:17:45;;;;;;;5.28;2.50;;;;;;;;;;5074603;28;20032;-74
2022/08/18 12:20:11;;;;;;;4.30;2.78;;;;;;;;;;5073915;28;20107;-74
2022/08/18 12:22:38;;;;;;;4.35;2.53;;;;;;;;;;5074933;28;20029;-71
2022/08/18 12:25:07;;;;;;;4.20;2.35;;;;;;;;;;5074305;28;20475;-70
2022/08/18 12:27:33;;;;;;;6.65;3.10;;;48.40;51.70;;;;;;5074734;28;20060;-71
2022/08/18 12:30:00;;;;;;;3.85;2.50;;;;;;;;;;5073144;28;20384;-70
2022/08/18 12:32:28;;;;;;;3.90;2.50;;;;;;;;;;5076166;28;20035;-72
2022/08/18 12:34:54;;;;;;;5.22;2.50;;;;;;;;;;5094971;28;20086;-72
2022/08/18 12:37:23;;;;;;;5.75;2.45;;;48.10;56.20;;;;;;5095332;28;20028;-73
2022/08/18 12:39:49;;;;;;;4.10;2.55;;;48.60;48.60;;;;;;5085018;28;20028;-72
2022/08/18 12:42:16;;;;;;;3.85;2.70;;;;;;;;;;5074597;28;20358;-72
2022/08/18 12:44:42;;;;;;;3.05;2.35;;;;;;;;;;5074516;28;20046;-74
2022/08/18 12:47:14;;;;;;;8.30;2.58;;;49.00;62.90;;;;;;5074820;28;20020;-70
2022/08/18 12:49:40;;;;;;;5.35;2.22;;;;;;;;;;5073270;28;20055;-71
2022/08/18 12:52:07;;;;;;;2.60;2.30;;;49.60;44.20;;;;;;5074717;28;20031;-70
2022/08/18 12:54:34;;;;;;;15.93;10.82;;;49.60;43.80;;;;;;5073454;28;20032;-72
2022/08/18 12:57:04;;;;;;;3.03;2.72;;;49.70;43.60;;;;;;5074431;28;20396;-75
2022/08/18 12:59:30;;;;;;;5.43;2.70;;;;;;;;;;5074612;28;20035;-75
2022/08/18 13:01:56;;;;;;;5.78;2.35;;;49.80;43.40;;;;;;5074712;28;20035;-71
2022/08/18 13:04:22;;;;;;;2.38;2.17;;;;;;;;;;5074397;28;20037;-72
2022/08/18 13:06:54;;;;;;;8.73;3.00;;;50.20;42.60;;;;;;5072310;28;20020;-72
2022/08/18 13:09:21;;;;;;;2.78;2.28;;;;;;;;;;5074458;28;20099;-74
2022/08/18 13:11:47;;;;;;;5.22;2.67;;;;;;;;;;5072880;28;20041;-74
2022/08/18 13:14:14;;;;;;;4.78;2.90;;;50.20;42.10;;;;;;5074254;28;20029;-72
2022/08/18 13:16:41;;;;;;;4.60;2.45;;;;;;;;;;5073759;28;20074;-72
2022/08/18 13:19:08;;;;;;;5.50;2.65;;;51.60;42.10;;;;;;5073991;28;20020;-71
2022/08/18 13:21:34;;;;;;;;;;;52.30;42.70;;;;;;5074526;28;20024;-71
2022/08/18 13:24:01;;;;;;;4.68;2.30;;;50.80;42.00;;;;;;5072973;28;19909;-73
2022/08/18 13:26:29;;;;;;;3.65;2.65;;;51.20;42.10;;;;;;5072927;28;20083;-73
2022/08/18 13:28:56;;;;;;;4.50;2.50;;;51.70;42.90;;;;;;5073953;28;20033;-72
2022/08/18 13:31:23;;;;;;;3.20;2.40;;;51.30;42.50;;;;;;5074128;28;20020;-72
2022/08/18 13:33:49;;;;;;;6.88;2.40;;;51.10;42.40;;;;;;5073959;28;20025;-71
2022/08/18 13:36:15;;;;;;;5.88;2.90;;;50.70;41.70;;;;;;5072447;28;20035;-75
2022/08/18 13:38:42;;;;;;;3.63;2.20;;;51.70;42.20;;;;;;5072320;28;20503;-68
2022/08/18 13:41:09;;;;;;;8.15;2.72;;;52.80;41.70;;;;;;5073996;28;20052;-68
2022/08/18 13:43:42;;;;;;;6.22;2.83;;;52.80;42.30;;;;;;5073883;28;20032;-69
2022/08/18 13:46:17;;;;;;;7.03;3.15;;;53.70;41.80;;;;;;5073713;28;20393;-71
2022/08/18 13:48:44;;;;;;;3.90;2.30;;;53.10;40.90;;;;;;5073702;28;20453;-74
2022/08/18 13:51:18;;;;;;;5.32;2.13;;;53.10;41.30;;;;;;5073972;28;20035;-73
2022/08/18 13:53:43;;;;;;;4.78;2.28;;;53.10;40.90;;;;;;5072590;28;20123;-74
2022/08/18 13:56:09;;;;;;;9.23;2.10;;;52.80;41.20;;;;;;5073872;28;20111;-71
2022/08/18 13:58:35;;;;;;;4.13;2.22;;;52.20;40.60;;;;;;5073317;28;20472;-69
2022/08/18 14:01:05;;;;;;;8.32;2.50;;;52.20;40.60;;;;;;5073585;28;20029;-70
2022/08/18 14:03:31;;;;;;;6.40;2.80;;;51.80;40.90;;;;;;5073551;28;20043;-70
2022/08/18 14:05:59;;;;;;;6.13;2.30;;;52.20;41.20;;;;;;5073257;28;20025;-70